SBOSBO LYS / LFLL
Speedbird OnlineSpeedbird Online LYS / LFLL

Lyon Saint-Exupéry Airport
21:19 26.8°C

Location Lyon, France
Latitude: 45.725556
Longitude: 5.081111
Local Time 21:19 on 19 Jun 2024
UTC +2 hours (Europe/Paris)
Currency £1 equals EUR 1.19
METAR LFLL 191900Z 15004KT CAVOK 28/17 Q1014 NOSIG
TAF TAF LFLL 191700Z 1918/2024 17007KT CAVOK PROB40 TEMPO 2007/2017 18015G33KT SHRA FEW090CB SCT100TCU PROB30 TEMPO 2014/2017 2000 TSRA BKN090CB BECMG 2018/2020 VRB04KT
Weather As Of 19 Jun 2024 21:19
Description Clear sky
Wind 9 km/h from South-East (140°)
Cloud Cover 0%
Precipitation Rain: none, Snow: none
Sunrise 05:49
Sunset 21:32
NOTAM 13 active NOTAM
Rotations During the last 90 days there were
215 flights from LHR
11 flights from LGW
1 flights from LYS
214 flights to LHR
12 flights to LGW
1 flights to LYS
1 flights to GVA
1 flights to SOU
Lounges Confluence Lounge, Terminal 1
Mont Blanc Lounge, Terminal 1
Web Airport Website | Wikipedia
Codes IATA: LYS
ICAO: LFLL
Altitude 250 Meter / 821 Feet
Distance 739 KM / 459 Miles
from London.
Runways
RunwayLength (m)Surface
17L2670Asphalt
17R4000Asphalt
35L4000Asphalt
35R2670Asphalt
Radio
TypeDescriptionFrequency
A/DLyon approach136.075
ATISATIS126.175
GNDGND121.825
PFLTPREFLIGHT121.65
TWRTWR120.45
Live ATC



Support Speedbird Online

© 2017-2024 Speedbird Online